Time;durP1;ratioP1;P1;durP2;ratioP2;P2;SDS_P1;SDS_P2;PMS_P1;PMS_P2;Temp;Humidity;BMP_temperature;BMP_pressure;BME280_temperature;BME280_humidity;BME280_pressure;Samples;Min_cycle;Max_cycle;Signal;HPM_P1;HPM_P2
2021/07/25 00:01:46;;;;;;;;;;;25.00;53.80;;;;;;8334075;28;19925;-46
2021/07/25 00:05:47;;;;;;;;;;;25.00;53.70;;;;;;8334487;28;19924;-46
2021/07/25 00:09:47;;;;;;;;;;;25.00;53.70;;;;;;8333558;28;19917;-46
2021/07/25 00:13:51;;;;;;;;;;;25.00;53.70;;;;;;8334686;28;19913;-47
2021/07/25 00:17:52;;;;;;;;;;;25.00;53.70;;;;;;8333729;28;20008;-47
2021/07/25 00:21:53;;;;;;;;;;;25.00;53.70;;;;;;8333672;28;20345;-48
2021/07/25 00:25:57;;;;;;;;;;;25.00;53.60;;;;;;8333575;28;20262;-47
2021/07/25 00:29:57;;;;;;;;;;;25.00;53.60;;;;;;8334452;28;19954;-46
2021/07/25 00:33:57;;;;;;;;;;;25.00;53.60;;;;;;8333755;28;20267;-47
2021/07/25 00:37:58;;;;;;;;;;;25.00;53.60;;;;;;8333287;28;19917;-48
2021/07/25 00:41:58;;;;;;;;;;;25.00;53.60;;;;;;8333273;28;19965;-46
2021/07/25 00:45:59;;;;;;;;;;;25.00;53.60;;;;;;8334303;28;19913;-48
2021/07/25 00:50:00;;;;;;;;;;;25.00;53.60;;;;;;8332674;28;20432;-47
2021/07/25 00:54:00;;;;;;;;;;;25.00;53.60;;;;;;8333086;28;19958;-46
2021/07/25 00:58:01;;;;;;;;;;;25.00;53.60;;;;;;8333137;28;19917;-46
2021/07/25 01:02:02;;;;;;;;;;;24.90;53.50;;;;;;8332182;28;19929;-47
2021/07/25 01:06:21;;;;;;;;;;;24.90;53.50;;;;;;8333508;28;19921;-48
2021/07/25 01:10:29;;;;;;;;;;;25.00;53.50;;;;;;8332468;28;19947;-47
2021/07/25 01:14:31;;;;;;;;;;;25.00;53.50;;;;;;8331955;28;19987;-49
2021/07/25 01:18:31;;;;;;;;;;;25.00;53.50;;;;;;8332024;28;20271;-47
2021/07/25 01:22:34;;;;;;;;;;;24.90;54.00;;;;;;8332541;28;19913;-48
2021/07/25 01:26:36;;;;;;;;;;;24.90;53.50;;;;;;8332125;28;19914;-47
2021/07/25 01:30:38;;;;;;;;;;;24.90;53.50;;;;;;8332049;28;20320;-49
2021/07/25 01:34:40;;;;;;;;;;;24.90;53.40;;;;;;8331753;28;19956;-48
2021/07/25 01:38:41;;;;;;;;;;;25.00;53.50;;;;;;8331202;28;19929;-48
2021/07/25 01:42:41;;;;;;;;;;;24.90;53.50;;;;;;8332523;28;19944;-46
2021/07/25 01:46:42;;;;;;;;;;;24.90;53.40;;;;;;8331898;28;20007;-48
2021/07/25 01:50:42;;;;;;;;;;;24.90;53.40;;;;;;8330658;28;19917;-46
2021/07/25 01:54:43;;;;;;;;;;;24.90;53.40;;;;;;8331090;28;20003;-46
2021/07/25 01:58:44;;;;;;;;;;;24.90;53.40;;;;;;8331449;28;20377;-47
2021/07/25 02:02:44;;;;;;;;;;;24.90;53.40;;;;;;8331134;28;20007;-47
2021/07/25 02:06:45;;;;;;;;;;;24.90;53.40;;;;;;8331130;28;19928;-46
2021/07/25 02:10:45;;;;;;;;;;;24.90;53.40;;;;;;8330501;28;19917;-47
2021/07/25 02:14:46;;;;;;;;;;;24.90;53.40;;;;;;8331035;28;20023;-46
2021/07/25 02:18:46;;;;;;;;;;;24.80;53.40;;;;;;8331300;28;19921;-47
2021/07/25 02:22:47;;;;;;;;;;;24.80;53.30;;;;;;8330052;28;19948;-47
2021/07/25 02:26:48;;;;;;;;;;;24.80;53.30;;;;;;8330238;28;19921;-46
2021/07/25 02:30:48;;;;;;;;;;;24.80;53.30;;;;;;8329665;28;19924;-45
2021/07/25 02:34:49;;;;;;;;;;;24.80;53.30;;;;;;8330468;28;20371;-44
2021/07/25 02:38:49;;;;;;;;;;;24.80;53.30;;;;;;8330084;28;19925;-45
2021/07/25 02:42:50;;;;;;;;;;;24.80;53.30;;;;;;8330119;28;19941;-46
2021/07/25 02:46:50;;;;;;;;;;;24.80;53.30;;;;;;8329623;28;19924;-45
2021/07/25 02:50:50;;;;;;;;;;;24.80;53.20;;;;;;8330998;28;19920;-46
2021/07/25 02:54:51;;;;;;;;;;;24.80;53.30;;;;;;8330266;28;19948;-45
2021/07/25 02:58:51;;;;;;;;;;;24.80;53.20;;;;;;8329332;28;20027;-46
2021/07/25 03:02:56;;;;;;;;;;;24.80;53.30;;;;;;8330131;28;19917;-46
2021/07/25 03:06:56;;;;;;;;;;;24.80;53.30;;;;;;8329527;28;20000;-46
2021/07/25 03:10:57;;;;;;;;;;;24.80;53.20;;;;;;8330171;28;19917;-47
2021/07/25 03:14:57;;;;;;;;;;;24.80;53.30;;;;;;8329570;28;19922;-48
2021/07/25 03:18:58;;;;;;;;;;;24.80;53.30;;;;;;8329514;28;19933;-46
2021/07/25 03:22:58;;;;;;;;;;;24.80;53.20;;;;;;8329100;28;19971;-46
2021/07/25 03:26:59;;;;;;;;;;;24.80;53.20;;;;;;8330219;28;19941;-46
2021/07/25 03:30:59;;;;;;;;;;;24.80;53.20;;;;;;8329488;28;20282;-46
2021/07/25 03:35:00;;;;;;;;;;;24.80;53.20;;;;;;8329303;28;19917;-48
2021/07/25 03:39:00;;;;;;;;;;;24.80;53.20;;;;;;8329539;28;19968;-46
2021/07/25 03:43:01;;;;;;;;;;;24.80;53.20;;;;;;8332330;28;19913;-46
2021/07/25 03:47:01;;;;;;;;;;;24.80;53.20;;;;;;8335417;28;19937;-45
2021/07/25 03:51:02;;;;;;;;;;;24.80;53.20;;;;;;8335025;28;19917;-46
2021/07/25 03:55:04;;;;;;;;;;;24.80;53.20;;;;;;8335095;28;20289;-46
2021/07/25 03:59:04;;;;;;;;;;;24.70;53.20;;;;;;8334192;28;20452;-47
2021/07/25 04:03:05;;;;;;;;;;;24.80;53.20;;;;;;8335486;28;19913;-46
2021/07/25 04:07:05;;;;;;;;;;;24.80;53.20;;;;;;8334350;28;19956;-45
2021/07/25 04:11:06;;;;;;;;;;;24.80;53.20;;;;;;8334034;28;20000;-47
2021/07/25 04:15:06;;;;;;;;;;;24.80;53.20;;;;;;8334674;28;19917;-47
2021/07/25 04:19:07;;;;;;;;;;;24.80;53.20;;;;;;8335038;28;20377;-46
2021/07/25 04:23:08;;;;;;;;;;;24.80;53.20;;;;;;8333637;28;19917;-46
2021/07/25 04:27:08;;;;;;;;;;;24.70;53.10;;;;;;8334401;28;19963;-46
2021/07/25 04:31:09;;;;;;;;;;;24.70;53.10;;;;;;8334068;28;19924;-47
2021/07/25 04:35:10;;;;;;;;;;;24.70;53.10;;;;;;8333177;28;19913;-46
2021/07/25 04:39:11;;;;;;;;;;;24.70;53.20;;;;;;8334334;28;19921;-46
2021/07/25 04:43:13;;;;;;;;;;;24.70;53.10;;;;;;8333612;28;19917;-47
2021/07/25 04:47:16;;;;;;;;;;;24.70;53.20;;;;;;8333048;28;20421;-46
2021/07/25 04:51:18;;;;;;;;;;;24.70;53.10;;;;;;8333133;28;20059;-46
2021/07/25 04:55:21;;;;;;;;;;;24.70;53.10;;;;;;8333363;28;19917;-47
2021/07/25 04:59:24;;;;;;;;;;;24.70;53.10;;;;;;8332295;28;20011;-46
2021/07/25 05:03:25;;;;;;;;;;;24.70;53.10;;;;;;8332873;28;19917;-46
2021/07/25 05:07:25;;;;;;;;;;;24.70;53.10;;;;;;8332655;28;20440;-47
2021/07/25 05:11:30;;;;;;;;;;;24.70;53.10;;;;;;8332084;28;19959;-46
2021/07/25 05:15:32;;;;;;;;;;;24.70;53.10;;;;;;8333054;28;20062;-46
2021/07/25 05:19:52;;;;;;;;;;;24.70;53.10;;;;;;8332339;28;19925;-46
2021/07/25 05:23:57;;;;;;;;;;;24.70;53.10;;;;;;8332097;28;20374;-46
2021/07/25 05:28:00;;;;;;;;;;;24.70;53.10;;;;;;8332126;28;19923;-46
2021/07/25 05:32:00;;;;;;;;;;;24.70;53.10;;;;;;8332295;28;19971;-46
2021/07/25 05:36:01;;;;;;;;;;;24.70;53.10;;;;;;8331589;28;19917;-47
2021/07/25 05:40:02;;;;;;;;;;;24.70;53.10;;;;;;8331617;28;19940;-47
2021/07/25 05:44:02;;;;;;;;;;;24.70;53.00;;;;;;8331325;28;19913;-47
2021/07/25 05:48:03;;;;;;;;;;;24.70;53.00;;;;;;8331501;28;19944;-47
2021/07/25 05:52:03;;;;;;;;;;;24.70;53.00;;;;;;8332037;28;19921;-46
2021/07/25 05:56:04;;;;;;;;;;;24.70;53.00;;;;;;8330818;28;20259;-46
2021/07/25 06:00:05;;;;;;;;;;;24.70;53.00;;;;;;8331043;28;19983;-48
2021/07/25 06:04:05;;;;;;;;;;;24.70;53.00;;;;;;8330954;28;19946;-47
2021/07/25 06:08:07;;;;;;;;;;;24.70;52.90;;;;;;8330280;28;19927;-47
2021/07/25 06:12:07;;;;;;;;;;;24.70;52.90;;;;;;8331128;28;19924;-46
2021/07/25 06:16:08;;;;;;;;;;;24.70;52.90;;;;;;8330651;28;19921;-47
2021/07/25 06:20:08;;;;;;;;;;;24.70;52.90;;;;;;8329986;28;19932;-47
2021/07/25 06:24:09;;;;;;;;;;;24.70;52.80;;;;;;8330799;28;20422;-47
2021/07/25 06:28:09;;;;;;;;;;;24.70;52.80;;;;;;8330898;28;19921;-47
2021/07/25 06:32:10;;;;;;;;;;;24.70;52.80;;;;;;8329912;28;19917;-47
2021/07/25 06:36:11;;;;;;;;;;;24.70;52.80;;;;;;8330314;28;19924;-47
2021/07/25 06:40:12;;;;;;;;;;;24.70;52.80;;;;;;8330044;28;19948;-46
2021/07/25 06:44:12;;;;;;;;;;;24.70;52.80;;;;;;8330465;28;19921;-47
2021/07/25 06:48:16;;;;;;;;;;;24.70;52.80;;;;;;8330087;28;19917;-46
2021/07/25 06:52:17;;;;;;;;;;;24.70;52.80;;;;;;8329832;28;20016;-46
2021/07/25 06:56:17;;;;;;;;;;;24.70;52.80;;;;;;8329403;28;20376;-46
2021/07/25 07:00:17;;;;;;;;;;;24.70;52.80;;;;;;8330706;28;20027;-46
2021/07/25 07:04:18;;;;;;;;;;;24.70;52.80;;;;;;8329948;28;19921;-46
2021/07/25 07:08:20;;;;;;;;;;;24.70;52.80;;;;;;8329208;28;19940;-46
2021/07/25 07:12:20;;;;;;;;;;;24.70;52.80;;;;;;8329846;28;19920;-47
2021/07/25 07:16:21;;;;;;;;;;;24.70;52.80;;;;;;8330275;28;20294;-47
2021/07/25 07:20:22;;;;;;;;;;;24.70;52.80;;;;;;8336318;28;19995;-48
2021/07/25 07:24:23;;;;;;;;;;;24.70;52.70;;;;;;8335914;28;19963;-49
2021/07/25 07:28:23;;;;;;;;;;;24.70;52.70;;;;;;8336003;28;20271;-47
2021/07/25 07:32:24;;;;;;;;;;;24.70;52.80;;;;;;8335392;28;19949;-46
2021/07/25 07:36:24;;;;;;;;;;;24.70;52.70;;;;;;8336078;28;19936;-45
2021/07/25 07:40:25;;;;;;;;;;;24.70;52.70;;;;;;8335414;28;19929;-51
2021/07/25 07:44:25;;;;;;;;;;;24.80;52.80;;;;;;8334741;28;19929;-49
2021/07/25 07:48:25;;;;;;;;;;;24.70;52.70;;;;;;8335164;28;20015;-47
2021/07/25 07:52:26;;;;;;;;;;;24.80;52.80;;;;;;8335961;28;19925;-48
2021/07/25 07:56:26;;;;;;;;;;;24.80;52.80;;;;;;8334570;28;19939;-46
2021/07/25 08:00:27;;;;;;;;;;;24.80;52.80;;;;;;8334778;28;19932;-45
2021/07/25 08:04:27;;;;;;;;;;;24.80;52.80;;;;;;8334653;28;19956;-49
2021/07/25 08:08:28;;;;;;;;;;;24.70;52.70;;;;;;8334683;28;19976;-46
2021/07/25 08:12:28;;;;;;;;;;;24.70;52.70;;;;;;8335479;28;20290;-47
2021/07/25 08:16:29;;;;;;;;;;;24.70;52.80;;;;;;8334222;28;20618;-47
2021/07/25 08:20:29;;;;;;;;;;;24.70;52.70;;;;;;8333807;28;19925;-46
2021/07/25 08:24:30;;;;;;;;;;;24.70;52.70;;;;;;8334300;28;19917;-46
2021/07/25 08:28:30;;;;;;;;;;;24.70;52.70;;;;;;8333583;28;19913;-46
2021/07/25 08:32:31;;;;;;;;;;;24.70;52.70;;;;;;8333377;28;20294;-46
2021/07/25 08:36:31;;;;;;;;;;;24.70;52.80;;;;;;8333847;28;20274;-46
2021/07/25 08:40:32;;;;;;;;;;;24.70;52.80;;;;;;8333551;28;20432;-46
2021/07/25 08:44:41;;;;;;;;;;;24.70;52.90;;;;;;8333204;28;19959;-46
2021/07/25 08:48:52;;;;;;;;;;;24.70;52.80;;;;;;8334039;28;19921;-46
2021/07/25 08:52:54;;;;;;;;;;;24.70;52.80;;;;;;8332746;28;19963;-45
2021/07/25 08:56:58;;;;;;;;;;;24.70;52.80;;;;;;8333212;28;19924;-50
2021/07/25 09:00:59;;;;;;;;;;;24.70;52.80;;;;;;8325086;28;20341;-46
2021/07/25 09:05:00;;;;;;;;;;;24.70;52.80;;;;;;8300383;28;19914;-46
2021/07/25 09:09:01;;;;;;;;;;;24.70;52.80;;;;;;8300365;28;19949;-47
2021/07/25 09:13:01;;;;;;;;;;;24.70;52.80;;;;;;8299943;28;19917;-46
2021/07/25 09:17:02;;;;;;;;;;;24.70;52.80;;;;;;8299380;28;19917;-46
2021/07/25 09:21:02;;;;;;;;;;;24.70;52.80;;;;;;8299807;28;19921;-45
2021/07/25 09:25:03;;;;;;;;;;;24.70;52.80;;;;;;8300182;28;19917;-47
2021/07/25 09:29:20;;;;;;;;;;;24.60;52.80;;;;;;8298912;28;19932;-45
2021/07/25 09:33:21;;;;;;;;;;;24.60;52.80;;;;;;8299507;28;19944;-47
2021/07/25 09:37:22;;;;;;;;;;;24.60;52.80;;;;;;8299441;28;19920;-49
2021/07/25 09:41:24;;;;;;;;;;;24.60;52.80;;;;;;8299000;28;19925;-46
2021/07/25 09:45:24;;;;;;;;;;;24.60;52.80;;;;;;8298777;28;19925;-45
2021/07/25 09:49:40;;;;;;;;;;;24.60;52.80;;;;;;8298891;28;19918;-48
2021/07/25 09:53:42;;;;;;;;;;;24.60;52.80;;;;;;8298166;28;19918;-46
2021/07/25 09:57:52;;;;;;;;;;;24.60;52.80;;;;;;8298612;28;19928;-47
2021/07/25 10:01:53;;;;;;;;;;;24.60;52.80;;;;;;8298692;28;20301;-46
2021/07/25 10:05:53;;;;;;;;;;;24.60;52.80;;;;;;8298440;28;19922;-49
2021/07/25 10:10:00;;;;;;;;;;;24.60;52.80;;;;;;8298310;28;19918;-47
2021/07/25 10:14:01;;;;;;;;;;;24.60;52.80;;;;;;8297787;28;19924;-47
2021/07/25 10:18:01;;;;;;;;;;;24.60;52.80;;;;;;8298823;28;19914;-46
2021/07/25 10:22:06;;;;;;;;;;;24.70;52.80;;;;;;8297950;28;19925;-47
2021/07/25 10:26:07;;;;;;;;;;;24.70;52.90;;;;;;8297513;28;19925;-47
2021/07/25 10:30:09;;;;;;;;;;;24.60;52.80;;;;;;8297741;28;20335;-46
2021/07/25 10:34:10;;;;;;;;;;;24.60;52.80;;;;;;8297703;28;20012;-47
2021/07/25 10:38:11;;;;;;;;;;;24.70;52.80;;;;;;8297821;28;19921;-47
2021/07/25 10:42:13;;;;;;;;;;;24.60;52.80;;;;;;8297304;28;20394;-46
2021/07/25 10:46:13;;;;;;;;;;;24.60;52.80;;;;;;8297615;28;19924;-46
2021/07/25 10:50:18;;;;;;;;;;;24.60;52.80;;;;;;8296937;28;19961;-47
2021/07/25 10:54:21;;;;;;;;;;;24.60;52.90;;;;;;8303709;28;19917;-48
2021/07/25 10:58:23;;;;;;;;;;;24.60;52.80;;;;;;8303939;28;19961;-50
2021/07/25 11:02:26;;;;;;;;;;;24.60;52.80;;;;;;8303432;28;20389;-48
2021/07/25 11:06:27;;;;;;;;;;;24.60;52.80;;;;;;8303481;28;19921;-48
2021/07/25 11:10:31;;;;;;;;;;;24.60;52.90;;;;;;8303612;28;19926;-46
2021/07/25 11:14:52;;;;;;;;;;;24.60;52.80;;;;;;8303786;28;19924;-46
2021/07/25 11:18:52;;;;;;;;;;;24.60;52.80;;;;;;8303156;28;19917;-46
2021/07/25 11:22:53;;;;;;;;;;;24.60;52.80;;;;;;8302893;28;19920;-47
2021/07/25 11:26:54;;;;;;;;;;;24.60;52.80;;;;;;8303081;28;19925;-46
2021/07/25 11:30:55;;;;;;;;;;;24.60;52.80;;;;;;8303837;28;20396;-47
2021/07/25 11:35:03;;;;;;;;;;;24.60;53.00;;;;;;8302591;28;19917;-46
2021/07/25 11:39:05;;;;;;;;;;;24.60;52.80;;;;;;8302949;28;20302;-47
2021/07/25 11:43:05;;;;;;;;;;;24.60;52.80;;;;;;8302899;28;19915;-48
2021/07/25 11:47:06;;;;;;;;;;;24.60;52.80;;;;;;8302238;28;19917;-46
2021/07/25 11:51:08;;;;;;;;;;;24.60;52.80;;;;;;8303401;28;20429;-46
2021/07/25 11:55:08;;;;;;;;;;;24.60;52.70;;;;;;8302318;28;19921;-49
2021/07/25 11:59:09;;;;;;;;;;;24.60;52.80;;;;;;8301813;28;19926;-47
2021/07/25 12:03:09;;;;;;;;;;;24.60;52.70;;;;;;8302353;28;19988;-45
2021/07/25 12:07:17;;;;;;;;;;;24.60;53.30;;;;;;8302651;28;19921;-47
2021/07/25 12:11:20;;;;;;;;;;;24.60;52.70;;;;;;8301471;28;20442;-47
2021/07/25 12:15:21;;;;;;;;;;;24.60;52.70;;;;;;8301650;28;19921;-47
2021/07/25 12:19:23;;;;;;;;;;;24.60;52.70;;;;;;8300801;28;21282;-46
2021/07/25 12:23:37;;;;;;;;;;;24.60;52.70;;;;;;8301008;28;19933;-46
2021/07/25 12:27:37;;;;;;;;;;;24.60;52.70;;;;;;8302332;28;19913;-46
2021/07/25 12:31:38;;;;;;;;;;;24.60;52.70;;;;;;8301350;28;19971;-46
2021/07/25 12:35:38;;;;;;;;;;;24.60;52.70;;;;;;8300546;28;19929;-47
2021/07/25 12:39:39;;;;;;;;;;;24.60;52.70;;;;;;8300878;28;19936;-46
2021/07/25 12:43:39;;;;;;;;;;;24.60;52.70;;;;;;8301460;28;19967;-45
2021/07/25 12:47:39;;;;;;;;;;;24.70;52.70;;;;;;8300649;28;19918;-46
2021/07/25 12:51:43;;;;;;;;;;;24.70;52.70;;;;;;8300464;28;19917;-46
2021/07/25 12:55:47;;;;;;;;;;;24.70;52.60;;;;;;8300624;28;20321;-46
2021/07/25 12:59:47;;;;;;;;;;;24.70;52.60;;;;;;8300130;28;19999;-46
2021/07/25 13:03:48;;;;;;;;;;;24.70;52.60;;;;;;8301283;28;19968;-46
2021/07/25 13:07:49;;;;;;;;;;;24.70;52.60;;;;;;8299709;28;20330;-47
2021/07/25 13:11:51;;;;;;;;;;;24.70;52.60;;;;;;8300018;28;19964;-47
2021/07/25 13:15:51;;;;;;;;;;;24.70;52.50;;;;;;8299040;28;19969;-47
2021/07/25 13:19:52;;;;;;;;;;;24.80;52.60;;;;;;8299858;28;19925;-45
2021/07/25 13:23:53;;;;;;;;;;;24.70;52.50;;;;;;8299899;28;19917;-48
2021/07/25 13:27:53;;;;;;;;;;;24.80;52.50;;;;;;8299564;28;20092;-46
2021/07/25 13:31:53;;;;;;;;;;;24.80;52.50;;;;;;8298952;28;19917;-45
2021/07/25 13:35:54;;;;;;;;;;;24.80;52.50;;;;;;8299186;28;19917;-46
2021/07/25 13:39:54;;;;;;;;;;;24.80;52.50;;;;;;8299900;28;20360;-46
2021/07/25 13:44:00;;;;;;;;;;;24.80;52.40;;;;;;8298596;28;20386;-46
2021/07/25 13:48:00;;;;;;;;;;;24.90;52.40;;;;;;8302676;28;19924;-46
2021/07/25 13:52:01;;;;;;;;;;;24.80;52.40;;;;;;8298652;28;19918;-45
2021/07/25 13:56:04;;;;;;;;;;;24.90;52.60;;;;;;8299059;28;19967;-48
2021/07/25 14:00:05;;;;;;;;;;;24.90;52.30;;;;;;8298658;28;20424;-48
2021/07/25 14:04:05;;;;;;;;;;;24.90;52.30;;;;;;8298180;28;20052;-49
2021/07/25 14:08:06;;;;;;;;;;;24.90;52.30;;;;;;8297565;28;19932;-46
2021/07/25 14:12:07;;;;;;;;;;;24.90;52.20;;;;;;8299270;28;19914;-48
2021/07/25 14:16:19;;;;;;;;;;;24.90;52.30;;;;;;8297972;28;19953;-46
2021/07/25 14:20:20;;;;;;;;;;;24.90;52.20;;;;;;8297465;28;20271;-46
2021/07/25 14:24:20;;;;;;;;;;;24.90;52.20;;;;;;8309089;28;19921;-46
2021/07/25 14:28:21;;;;;;;;;;;24.90;52.20;;;;;;8324816;28;19921;-47
2021/07/25 14:32:21;;;;;;;;;;;24.90;52.20;;;;;;8297964;28;20400;-47
2021/07/25 14:36:22;;;;;;;;;;;24.90;52.20;;;;;;8297893;28;19929;-47
2021/07/25 14:40:22;;;;;;;;;;;25.00;52.20;;;;;;8297491;28;19929;-46
2021/07/25 14:44:23;;;;;;;;;;;24.90;52.20;;;;;;8297036;28;19990;-46
2021/07/25 14:48:23;;;;;;;;;;;25.00;52.20;;;;;;8298109;28;19936;-46
2021/07/25 14:52:23;;;;;;;;;;;25.00;52.20;;;;;;8297381;28;20056;-46
2021/07/25 14:56:24;;;;;;;;;;;24.90;52.10;;;;;;8296908;28;19917;-48
2021/07/25 15:00:24;;;;;;;;;;;25.00;52.20;;;;;;8297458;28;19925;-51
2021/07/25 15:04:27;;;;;;;;;;;25.00;52.10;;;;;;8297376;28;19921;-45
2021/07/25 15:08:27;;;;;;;;;;;25.00;52.10;;;;;;8297453;28;19922;-45
2021/07/25 15:12:28;;;;;;;;;;;25.00;52.10;;;;;;8296967;28;19948;-47
2021/07/25 15:16:28;;;;;;;;;;;25.00;52.10;;;;;;8297205;28;19917;-46
2021/07/25 15:20:30;;;;;;;;;;;25.00;52.00;;;;;;8296511;28;19936;-46
2021/07/25 15:24:30;;;;;;;;;;;25.00;52.00;;;;;;8297597;28;19914;-46
2021/07/25 15:28:31;;;;;;;;;;;25.00;52.00;;;;;;8297162;28;19960;-47
2021/07/25 15:32:31;;;;;;;;;;;25.00;52.00;;;;;;8296364;28;19972;-46
2021/07/25 15:36:32;;;;;;;;;;;25.00;52.00;;;;;;8296697;28;20370;-49
2021/07/25 15:40:33;;;;;;;;;;;25.00;52.00;;;;;;8302799;28;19933;-46
2021/07/25 15:44:34;;;;;;;;;;;25.00;52.00;;;;;;8302198;28;20279;-47
2021/07/25 15:48:34;;;;;;;;;;;25.00;52.00;;;;;;8302618;28;19929;-49
2021/07/25 15:52:35;;;;;;;;;;;25.00;52.00;;;;;;8302652;28;19920;-48
2021/07/25 15:56:38;;;;;;;;;;;25.00;52.00;;;;;;8301923;28;19921;-49
2021/07/25 16:00:38;;;;;;;;;;;25.00;52.00;;;;;;8303110;28;19951;-47
2021/07/25 16:04:38;;;;;;;;;;;25.00;52.00;;;;;;8302129;28;19928;-46
2021/07/25 16:08:39;;;;;;;;;;;25.00;52.00;;;;;;8301337;28;19921;-46
2021/07/25 16:12:39;;;;;;;;;;;25.00;52.00;;;;;;8301931;28;19913;-46
2021/07/25 16:16:41;;;;;;;;;;;25.00;52.00;;;;;;8302540;28;20337;-45
2021/07/25 16:20:41;;;;;;;;;;;24.90;52.00;;;;;;8300906;28;20018;-46
2021/07/25 16:24:42;;;;;;;;;;;24.90;52.00;;;;;;8301336;28;20371;-45
2021/07/25 16:28:44;;;;;;;;;;;24.90;51.90;;;;;;8301298;28;20306;-47
2021/07/25 16:32:44;;;;;;;;;;;25.00;52.00;;;;;;8301023;28;19914;-46
2021/07/25 16:36:45;;;;;;;;;;;24.90;52.00;;;;;;8301747;28;19913;-46
2021/07/25 16:40:45;;;;;;;;;;;24.90;52.00;;;;;;8300538;28;19932;-46
2021/07/25 16:44:46;;;;;;;;;;;24.90;51.90;;;;;;8301002;28;20310;-46
2021/07/25 16:48:47;;;;;;;;;;;24.90;51.90;;;;;;8300215;28;19917;-45
2021/07/25 16:52:47;;;;;;;;;;;24.90;51.90;;;;;;8300631;28;19921;-46
2021/07/25 16:56:48;;;;;;;;;;;24.90;51.90;;;;;;8300472;28;20285;-46
2021/07/25 17:00:48;;;;;;;;;;;25.00;51.90;;;;;;8300205;28;20016;-45
2021/07/25 17:04:49;;;;;;;;;;;25.00;51.90;;;;;;8299928;28;19921;-46
2021/07/25 17:08:49;;;;;;;;;;;25.00;51.90;;;;;;8301564;28;20055;-46
2021/07/25 17:12:50;;;;;;;;;;;24.90;51.80;;;;;;8300084;28;19924;-46
2021/07/25 17:16:50;;;;;;;;;;;24.90;51.80;;;;;;8281920;28;20004;-47
2021/07/25 17:20:51;;;;;;;;;;;24.90;51.80;;;;;;8299482;28;19936;-45
2021/07/25 17:24:52;;;;;;;;;;;25.00;51.80;;;;;;8299818;28;19913;-45
2021/07/25 17:28:52;;;;;;;;;;;24.90;51.80;;;;;;8299896;28;19917;-46
2021/07/25 17:32:53;;;;;;;;;;;24.90;51.80;;;;;;8299358;28;19921;-47
2021/07/25 17:36:54;;;;;;;;;;;25.00;51.90;;;;;;8299411;28;19920;-47
2021/07/25 17:40:54;;;;;;;;;;;25.00;51.80;;;;;;8298480;28;19925;-45
2021/07/25 17:44:54;;;;;;;;;;;25.00;51.80;;;;;;8299996;28;19913;-47
2021/07/25 17:48:56;;;;;;;;;;;24.90;51.80;;;;;;8298841;28;20000;-46
2021/07/25 17:52:56;;;;;;;;;;;25.00;51.80;;;;;;8298594;28;19940;-47
2021/07/25 17:56:57;;;;;;;;;;;25.00;52.40;;;;;;8298876;28;19949;-47
2021/07/25 18:00:57;;;;;;;;;;;24.90;51.80;;;;;;8299101;28;20052;-47
2021/07/25 18:04:58;;;;;;;;;;;24.90;51.80;;;;;;8297917;28;19918;-46
2021/07/25 18:08:59;;;;;;;;;;;24.90;51.80;;;;;;8298375;28;20016;-46
2021/07/25 18:12:59;;;;;;;;;;;24.90;51.80;;;;;;8298587;28;19940;-47
2021/07/25 18:17:01;;;;;;;;;;;24.90;51.80;;;;;;8297577;28;19917;-46
2021/07/25 18:21:11;;;;;;;;;;;24.90;51.80;;;;;;8298771;28;19921;-46
2021/07/25 18:25:12;;;;;;;;;;;24.90;51.90;;;;;;8298009;28;19921;-46
2021/07/25 18:29:13;;;;;;;;;;;24.90;51.90;;;;;;8297442;28;19980;-46
2021/07/25 18:33:13;;;;;;;;;;;24.90;51.90;;;;;;8297769;28;20016;-46
2021/07/25 18:37:13;;;;;;;;;;;24.90;51.90;;;;;;8298283;28;20008;-47
2021/07/25 18:41:15;;;;;;;;;;;24.90;51.90;;;;;;8297264;28;19926;-46
2021/07/25 18:45:16;;;;;;;;;;;24.90;51.90;;;;;;8297821;28;19940;-46
2021/07/25 18:49:16;;;;;;;;;;;24.80;51.80;;;;;;8297468;28;19926;-46
2021/07/25 18:53:17;;;;;;;;;;;24.80;51.90;;;;;;8297090;28;19918;-46
2021/07/25 18:57:17;;;;;;;;;;;24.80;51.90;;;;;;8298405;28;19924;-46
2021/07/25 19:01:18;;;;;;;;;;;24.90;51.90;;;;;;8297281;28;19980;-46
2021/07/25 19:05:21;;;;;;;;;;;24.80;51.90;;;;;;8296537;28;19924;-49
2021/07/25 19:09:21;;;;;;;;;;;24.80;51.90;;;;;;8297304;28;19960;-47
2021/07/25 19:13:22;;;;;;;;;;;24.80;51.90;;;;;;8300038;28;19914;-48
2021/07/25 19:17:23;;;;;;;;;;;24.80;51.90;;;;;;8303175;28;20335;-46
2021/07/25 19:21:23;;;;;;;;;;;24.80;51.90;;;;;;8303277;28;19925;-48
2021/07/25 19:25:23;;;;;;;;;;;24.80;51.90;;;;;;8303294;28;19960;-47
2021/07/25 19:29:24;;;;;;;;;;;24.80;51.90;;;;;;8303596;28;19992;-47
2021/07/25 19:33:24;;;;;;;;;;;24.80;51.90;;;;;;8303234;28;20004;-47
2021/07/25 19:37:25;;;;;;;;;;;24.80;51.90;;;;;;8303214;28;19921;-47
2021/07/25 19:41:25;;;;;;;;;;;24.80;51.90;;;;;;8302319;28;19957;-47
2021/07/25 19:45:26;;;;;;;;;;;24.80;51.90;;;;;;8303001;28;19925;-47
2021/07/25 19:49:27;;;;;;;;;;;24.70;52.40;;;;;;8303282;28;20363;-46
2021/07/25 19:53:27;;;;;;;;;;;24.70;51.90;;;;;;8302015;28;19992;-48
2021/07/25 19:57:28;;;;;;;;;;;24.80;51.90;;;;;;8302440;28;19918;-48
2021/07/25 20:01:28;;;;;;;;;;;24.80;51.90;;;;;;8302400;28;19926;-46
2021/07/25 20:05:29;;;;;;;;;;;24.80;51.90;;;;;;8302298;28;19955;-48
2021/07/25 20:09:30;;;;;;;;;;;24.70;51.80;;;;;;8302264;28;19949;-48
2021/07/25 20:13:32;;;;;;;;;;;24.70;51.80;;;;;;8301961;28;19925;-49
2021/07/25 20:17:34;;;;;;;;;;;24.70;51.90;;;;;;8301316;28;19917;-48
2021/07/25 20:21:37;;;;;;;;;;;24.70;51.90;;;;;;8301612;28;20341;-46
2021/07/25 20:25:37;;;;;;;;;;;24.70;51.90;;;;;;8300912;28;19920;-48
2021/07/25 20:29:38;;;;;;;;;;;24.70;51.90;;;;;;8300917;28;20339;-47
2021/07/25 20:33:39;;;;;;;;;;;24.70;51.90;;;;;;8301432;28;19921;-48
2021/07/25 20:37:40;;;;;;;;;;;24.70;51.90;;;;;;8301256;28;19960;-46
2021/07/25 20:41:43;;;;;;;;;;;24.70;51.90;;;;;;8301289;28;19921;-47
2021/07/25 20:45:43;;;;;;;;;;;24.70;51.90;;;;;;8300929;28;19964;-46
2021/07/25 20:49:44;;;;;;;;;;;24.70;51.90;;;;;;8300962;28;20051;-46
2021/07/25 20:53:44;;;;;;;;;;;24.70;51.80;;;;;;8300319;28;19996;-49
2021/07/25 20:57:45;;;;;;;;;;;24.60;51.80;;;;;;8301481;28;19976;-48
2021/07/25 21:01:45;;;;;;;;;;;24.60;52.30;;;;;;8299883;28;19925;-48
2021/07/25 21:05:46;;;;;;;;;;;24.60;51.80;;;;;;8300284;28;19921;-46
2021/07/25 21:09:46;;;;;;;;;;;24.60;51.80;;;;;;8300172;28;19918;-47
2021/07/25 21:13:46;;;;;;;;;;;24.60;51.80;;;;;;8299511;28;19926;-46
2021/07/25 21:17:47;;;;;;;;;;;24.60;51.80;;;;;;8300636;28;19914;-47
2021/07/25 21:21:47;;;;;;;;;;;24.60;51.80;;;;;;8299833;28;19930;-47
2021/07/25 21:25:48;;;;;;;;;;;24.60;51.80;;;;;;8299255;28;19924;-46
2021/07/25 21:29:48;;;;;;;;;;;24.60;51.80;;;;;;8299560;28;19918;-47
2021/07/25 21:33:49;;;;;;;;;;;24.60;51.80;;;;;;8300107;28;19913;-48
2021/07/25 21:37:49;;;;;;;;;;;24.60;51.80;;;;;;8298446;28;19922;-47
2021/07/25 21:41:50;;;;;;;;;;;24.60;51.80;;;;;;8299441;28;20012;-48
2021/07/25 21:45:50;;;;;;;;;;;24.60;51.80;;;;;;8298920;28;19924;-47
2021/07/25 21:49:51;;;;;;;;;;;24.50;51.80;;;;;;8299025;28;20337;-47
2021/07/25 21:53:51;;;;;;;;;;;24.50;51.80;;;;;;8299187;28;19913;-46
2021/07/25 21:57:52;;;;;;;;;;;24.50;51.80;;;;;;8298827;28;19924;-46
2021/07/25 22:02:03;;;;;;;;;;;24.50;51.80;;;;;;8297552;28;19925;-47
2021/07/25 22:06:12;;;;;;;;;;;24.50;51.80;;;;;;8298210;28;20334;-48
2021/07/25 22:10:12;;;;;;;;;;;24.60;51.80;;;;;;8299217;28;19914;-47
2021/07/25 22:14:13;;;;;;;;;;;24.50;51.70;;;;;;8297625;28;19917;-49
2021/07/25 22:18:13;;;;;;;;;;;24.50;51.70;;;;;;8298487;28;19960;-49
2021/07/25 22:22:14;;;;;;;;;;;24.50;51.70;;;;;;8298146;28;20294;-47
2021/07/25 22:26:15;;;;;;;;;;;24.50;51.70;;;;;;8298414;28;19964;-46
2021/07/25 22:30:16;;;;;;;;;;;24.50;51.70;;;;;;8298387;28;19925;-47
2021/07/25 22:34:16;;;;;;;;;;;24.50;51.70;;;;;;8297915;28;19952;-47
2021/07/25 22:38:17;;;;;;;;;;;24.50;51.80;;;;;;8297727;28;19918;-47
2021/07/25 22:42:17;;;;;;;;;;;24.50;51.70;;;;;;8297489;28;20003;-46
2021/07/25 22:46:18;;;;;;;;;;;24.50;51.80;;;;;;8298235;28;19960;-46
2021/07/25 22:50:18;;;;;;;;;;;24.50;51.70;;;;;;8296540;28;20429;-46
2021/07/25 22:54:19;;;;;;;;;;;24.50;51.70;;;;;;8297561;28;20025;-47
2021/07/25 22:58:19;;;;;;;;;;;24.50;51.70;;;;;;8297626;28;20322;-50
2021/07/25 23:02:20;;;;;;;;;;;24.50;51.70;;;;;;8297642;28;19933;-47
2021/07/25 23:06:21;;;;;;;;;;;24.50;51.70;;;;;;8297206;28;19929;-48
2021/07/25 23:10:22;;;;;;;;;;;24.40;51.70;;;;;;8297423;28;19918;-49
2021/07/25 23:14:22;;;;;;;;;;;24.40;51.70;;;;;;8296705;28;19964;-47
2021/07/25 23:18:23;;;;;;;;;;;24.50;51.70;;;;;;8297102;28;19913;-48
2021/07/25 23:22:23;;;;;;;;;;;24.50;51.70;;;;;;8297889;28;19922;-48